sensor_id;sensor_type;location;lat;lon;timestamp;P1;durP1;ratioP1;P2;durP2;ratioP2
15915;SDS011;8057;47.830;-3.870;2023-04-24T00:03:33;6.23;;;3.70;;
15915;SDS011;8057;47.830;-3.870;2023-04-24T00:17:27;8.07;;;4.23;;
15915;SDS011;8057;47.830;-3.870;2023-04-24T00:21:48;9.27;;;3.97;;
15915;SDS011;8057;47.830;-3.870;2023-04-24T00:26:01;10.67;;;4.33;;
15915;SDS011;8057;47.830;-3.870;2023-04-24T00:30:55;7.43;;;4.17;;
15915;SDS011;8057;47.830;-3.870;2023-04-24T00:45:42;7.33;;;4.07;;
15915;SDS011;8057;47.830;-3.870;2023-04-24T00:50:06;11.27;;;4.13;;
15915;SDS011;8057;47.830;-3.870;2023-04-24T00:54:26;10.67;;;4.20;;
15915;SDS011;8057;47.830;-3.870;2023-04-24T00:59:07;10.50;;;4.33;;
15915;SDS011;8057;47.830;-3.870;2023-04-24T01:03:18;9.63;;;3.60;;
15915;SDS011;8057;47.830;-3.870;2023-04-24T01:07:40;9.03;;;4.07;;
15915;SDS011;8057;47.830;-3.870;2023-04-24T01:11:56;8.83;;;4.03;;
15915;SDS011;8057;47.830;-3.870;2023-04-24T01:20:41;8.33;;;4.50;;
15915;SDS011;8057;47.830;-3.870;2023-04-24T01:25:24;9.57;;;4.20;;
15915;SDS011;8057;47.830;-3.870;2023-04-24T01:29:42;9.90;;;4.23;;
15915;SDS011;8057;47.830;-3.870;2023-04-24T01:34:03;12.40;;;4.27;;
15915;SDS011;8057;47.830;-3.870;2023-04-24T01:38:28;13.00;;;4.60;;
15915;SDS011;8057;47.830;-3.870;2023-04-24T01:43:02;13.00;;;4.63;;
15915;SDS011;8057;47.830;-3.870;2023-04-24T01:47:43;8.73;;;4.47;;
15915;SDS011;8057;47.830;-3.870;2023-04-24T01:52:08;10.23;;;3.90;;
15915;SDS011;8057;47.830;-3.870;2023-04-24T01:56:33;10.63;;;4.20;;
15915;SDS011;8057;47.830;-3.870;2023-04-24T02:06:12;12.50;;;4.83;;
15915;SDS011;8057;47.830;-3.870;2023-04-24T02:11:04;10.20;;;4.00;;
15915;SDS011;8057;47.830;-3.870;2023-04-24T02:15:38;8.23;;;3.73;;
15915;SDS011;8057;47.830;-3.870;2023-04-24T02:20:05;11.00;;;4.80;;
15915;SDS011;8057;47.830;-3.870;2023-04-24T02:24:37;10.33;;;4.00;;
15915;SDS011;8057;47.830;-3.870;2023-04-24T02:29:30;12.53;;;4.40;;
15915;SDS011;8057;47.830;-3.870;2023-04-24T02:34:23;11.27;;;4.30;;
15915;SDS011;8057;47.830;-3.870;2023-04-24T03:04:42;9.27;;;4.23;;
15915;SDS011;8057;47.830;-3.870;2023-04-24T03:13:35;13.13;;;4.50;;
15915;SDS011;8057;47.830;-3.870;2023-04-24T03:17:51;11.53;;;4.33;;
15915;SDS011;8057;47.830;-3.870;2023-04-24T03:22:03;10.17;;;4.20;;
15915;SDS011;8057;47.830;-3.870;2023-04-24T03:26:32;8.67;;;4.10;;
15915;SDS011;8057;47.830;-3.870;2023-04-24T03:31:09;12.67;;;3.80;;
15915;SDS011;8057;47.830;-3.870;2023-04-24T03:40:29;7.50;;;3.07;;
15915;SDS011;8057;47.830;-3.870;2023-04-24T03:44:54;8.03;;;3.17;;
15915;SDS011;8057;47.830;-3.870;2023-04-24T03:49:31;9.87;;;3.60;;
15915;SDS011;8057;47.830;-3.870;2023-04-24T03:54:05;11.30;;;3.63;;
15915;SDS011;8057;47.830;-3.870;2023-04-24T04:07:23;10.70;;;3.63;;
15915;SDS011;8057;47.830;-3.870;2023-04-24T04:11:47;7.57;;;2.87;;
15915;SDS011;8057;47.830;-3.870;2023-04-24T04:15:56;9.13;;;3.30;;
15915;SDS011;8057;47.830;-3.870;2023-04-24T04:20:08;9.97;;;3.63;;
15915;SDS011;8057;47.830;-3.870;2023-04-24T04:24:23;12.57;;;3.60;;
15915;SDS011;8057;47.830;-3.870;2023-04-24T04:28:33;6.40;;;3.27;;
15915;SDS011;8057;47.830;-3.870;2023-04-24T04:32:42;12.87;;;4.23;;
15915;SDS011;8057;47.830;-3.870;2023-04-24T04:36:54;12.93;;;3.87;;
15915;SDS011;8057;47.830;-3.870;2023-04-24T04:41:10;7.90;;;3.20;;
15915;SDS011;8057;47.830;-3.870;2023-04-24T04:45:27;11.73;;;4.13;;
15915;SDS011;8057;47.830;-3.870;2023-04-24T04:49:37;9.17;;;3.53;;
15915;SDS011;8057;47.830;-3.870;2023-04-24T04:53:49;13.50;;;3.60;;
15915;SDS011;8057;47.830;-3.870;2023-04-24T04:57:59;11.80;;;4.20;;
15915;SDS011;8057;47.830;-3.870;2023-04-24T05:02:14;15.47;;;3.83;;
15915;SDS011;8057;47.830;-3.870;2023-04-24T05:06:25;10.33;;;4.37;;
15915;SDS011;8057;47.830;-3.870;2023-04-24T05:10:36;11.30;;;3.50;;
15915;SDS011;8057;47.830;-3.870;2023-04-24T05:14:47;9.17;;;3.70;;
15915;SDS011;8057;47.830;-3.870;2023-04-24T05:18:58;10.53;;;3.93;;
15915;SDS011;8057;47.830;-3.870;2023-04-24T05:23:08;13.47;;;3.70;;
15915;SDS011;8057;47.830;-3.870;2023-04-24T05:27:21;9.07;;;3.77;;
15915;SDS011;8057;47.830;-3.870;2023-04-24T05:31:32;10.30;;;3.50;;
15915;SDS011;8057;47.830;-3.870;2023-04-24T05:35:42;9.87;;;3.33;;
15915;SDS011;8057;47.830;-3.870;2023-04-24T05:39:57;8.13;;;3.10;;
15915;SDS011;8057;47.830;-3.870;2023-04-24T05:44:08;6.53;;;3.10;;
15915;SDS011;8057;47.830;-3.870;2023-04-24T05:48:19;10.47;;;3.80;;
15915;SDS011;8057;47.830;-3.870;2023-04-24T05:52:29;8.77;;;3.37;;
15915;SDS011;8057;47.830;-3.870;2023-04-24T05:56:39;9.30;;;3.50;;
15915;SDS011;8057;47.830;-3.870;2023-04-24T06:00:50;9.77;;;3.30;;
15915;SDS011;8057;47.830;-3.870;2023-04-24T06:05:00;9.20;;;3.43;;
15915;SDS011;8057;47.830;-3.870;2023-04-24T06:09:11;8.20;;;3.40;;
15915;SDS011;8057;47.830;-3.870;2023-04-24T06:13:20;9.20;;;4.00;;
15915;SDS011;8057;47.830;-3.870;2023-04-24T06:17:32;6.80;;;3.43;;
15915;SDS011;8057;47.830;-3.870;2023-04-24T06:21:41;5.10;;;3.20;;
15915;SDS011;8057;47.830;-3.870;2023-04-24T06:25:51;20.60;;;6.93;;
15915;SDS011;8057;47.830;-3.870;2023-04-24T06:30:01;9.23;;;3.43;;
15915;SDS011;8057;47.830;-3.870;2023-04-24T06:34:12;5.77;;;3.03;;
15915;SDS011;8057;47.830;-3.870;2023-04-24T06:38:21;5.80;;;3.30;;
15915;SDS011;8057;47.830;-3.870;2023-04-24T06:42:32;9.60;;;3.83;;
15915;SDS011;8057;47.830;-3.870;2023-04-24T06:46:42;7.23;;;3.33;;
15915;SDS011;8057;47.830;-3.870;2023-04-24T06:51:06;11.83;;;4.87;;
15915;SDS011;8057;47.830;-3.870;2023-04-24T06:55:16;13.90;;;4.17;;
15915;SDS011;8057;47.830;-3.870;2023-04-24T06:59:25;9.07;;;3.70;;
15915;SDS011;8057;47.830;-3.870;2023-04-24T07:03:34;8.50;;;3.83;;
15915;SDS011;8057;47.830;-3.870;2023-04-24T07:07:45;8.80;;;3.80;;
15915;SDS011;8057;47.830;-3.870;2023-04-24T07:12:19;8.73;;;3.70;;
15915;SDS011;8057;47.830;-3.870;2023-04-24T07:16:29;11.87;;;4.23;;
15915;SDS011;8057;47.830;-3.870;2023-04-24T07:20:38;9.67;;;3.43;;
15915;SDS011;8057;47.830;-3.870;2023-04-24T07:24:49;11.37;;;3.70;;
15915;SDS011;8057;47.830;-3.870;2023-04-24T07:28:58;5.97;;;2.83;;
15915;SDS011;8057;47.830;-3.870;2023-04-24T07:33:07;10.07;;;3.23;;
15915;SDS011;8057;47.830;-3.870;2023-04-24T07:37:19;6.87;;;4.03;;
15915;SDS011;8057;47.830;-3.870;2023-04-24T07:41:31;6.47;;;3.33;;
15915;SDS011;8057;47.830;-3.870;2023-04-24T07:46:00;8.10;;;3.60;;
15915;SDS011;8057;47.830;-3.870;2023-04-24T07:50:15;9.67;;;4.40;;
15915;SDS011;8057;47.830;-3.870;2023-04-24T07:54:25;8.17;;;3.63;;
15915;SDS011;8057;47.830;-3.870;2023-04-24T07:58:39;6.37;;;3.40;;
15915;SDS011;8057;47.830;-3.870;2023-04-24T08:02:48;11.40;;;3.63;;
15915;SDS011;8057;47.830;-3.870;2023-04-24T08:06:57;8.73;;;4.03;;
15915;SDS011;8057;47.830;-3.870;2023-04-24T08:11:08;8.83;;;3.67;;
15915;SDS011;8057;47.830;-3.870;2023-04-24T08:15:19;8.20;;;3.57;;
15915;SDS011;8057;47.830;-3.870;2023-04-24T08:19:28;7.17;;;3.10;;
15915;SDS011;8057;47.830;-3.870;2023-04-24T08:23:37;8.43;;;3.47;;
15915;SDS011;8057;47.830;-3.870;2023-04-24T08:28:02;13.07;;;4.77;;
15915;SDS011;8057;47.830;-3.870;2023-04-24T08:37:21;6.57;;;3.60;;
15915;SDS011;8057;47.830;-3.870;2023-04-24T08:41:44;11.63;;;3.67;;
15915;SDS011;8057;47.830;-3.870;2023-04-24T08:45:55;7.63;;;3.70;;
15915;SDS011;8057;47.830;-3.870;2023-04-24T09:55:56;12.33;;;3.80;;
15915;SDS011;8057;47.830;-3.870;2023-04-24T10:41:09;7.70;;;3.03;;
15915;SDS011;8057;47.830;-3.870;2023-04-24T10:50:08;9.70;;;2.97;;
15915;SDS011;8057;47.830;-3.870;2023-04-24T14:23:22;7.37;;;3.17;;
15915;SDS011;8057;47.830;-3.870;2023-04-24T14:27:33;7.27;;;2.53;;
15915;SDS011;8057;47.830;-3.870;2023-04-24T14:32:17;8.10;;;2.60;;
15915;SDS011;8057;47.830;-3.870;2023-04-24T14:36:28;6.57;;;2.43;;
15915;SDS011;8057;47.830;-3.870;2023-04-24T14:40:44;7.07;;;2.73;;
15915;SDS011;8057;47.830;-3.870;2023-04-24T14:44:59;10.00;;;2.40;;
15915;SDS011;8057;47.830;-3.870;2023-04-24T14:49:08;10.20;;;2.77;;
15915;SDS011;8057;47.830;-3.870;2023-04-24T14:53:21;6.00;;;2.40;;
15915;SDS011;8057;47.830;-3.870;2023-04-24T14:57:40;9.13;;;3.27;;
15915;SDS011;8057;47.830;-3.870;2023-04-24T15:01:49;4.83;;;2.47;;
15915;SDS011;8057;47.830;-3.870;2023-04-24T15:06:14;7.33;;;2.50;;
15915;SDS011;8057;47.830;-3.870;2023-04-24T15:10:27;6.97;;;2.60;;
15915;SDS011;8057;47.830;-3.870;2023-04-24T16:17:07;6.13;;;2.63;;
15915;SDS011;8057;47.830;-3.870;2023-04-24T16:26:14;8.90;;;3.03;;
15915;SDS011;8057;47.830;-3.870;2023-04-24T16:30:48;4.87;;;2.60;;
15915;SDS011;8057;47.830;-3.870;2023-04-24T18:21:42;5.23;;;2.67;;
15915;SDS011;8057;47.830;-3.870;2023-04-24T18:25:51;8.87;;;3.10;;
15915;SDS011;8057;47.830;-3.870;2023-04-24T18:30:01;7.90;;;2.67;;
15915;SDS011;8057;47.830;-3.870;2023-04-24T18:34:15;7.00;;;2.43;;
15915;SDS011;8057;47.830;-3.870;2023-04-24T18:38:40;9.63;;;2.73;;
15915;SDS011;8057;47.830;-3.870;2023-04-24T18:47:35;8.43;;;2.87;;
15915;SDS011;8057;47.830;-3.870;2023-04-24T18:52:25;6.23;;;2.93;;
15915;SDS011;8057;47.830;-3.870;2023-04-24T18:56:55;6.63;;;2.80;;
15915;SDS011;8057;47.830;-3.870;2023-04-24T19:01:49;4.97;;;2.83;;
15915;SDS011;8057;47.830;-3.870;2023-04-24T19:06:00;5.13;;;2.30;;
15915;SDS011;8057;47.830;-3.870;2023-04-24T19:10:12;10.03;;;2.97;;
15915;SDS011;8057;47.830;-3.870;2023-04-24T19:14:24;3.50;;;1.90;;
15915;SDS011;8057;47.830;-3.870;2023-04-24T19:23:14;5.67;;;2.50;;
15915;SDS011;8057;47.830;-3.870;2023-04-24T19:38:19;5.47;;;2.00;;
15915;SDS011;8057;47.830;-3.870;2023-04-24T19:42:47;5.30;;;2.47;;
15915;SDS011;8057;47.830;-3.870;2023-04-24T19:47:46;5.67;;;2.43;;
15915;SDS011;8057;47.830;-3.870;2023-04-24T19:52:10;7.67;;;2.67;;
15915;SDS011;8057;47.830;-3.870;2023-04-24T20:01:07;4.23;;;2.20;;
15915;SDS011;8057;47.830;-3.870;2023-04-24T20:05:31;4.60;;;2.50;;
15915;SDS011;8057;47.830;-3.870;2023-04-24T20:09:40;7.97;;;2.30;;
15915;SDS011;8057;47.830;-3.870;2023-04-24T20:13:51;11.13;;;2.70;;
15915;SDS011;8057;47.830;-3.870;2023-04-24T20:22:43;7.73;;;2.80;;
15915;SDS011;8057;47.830;-3.870;2023-04-24T20:26:53;5.87;;;3.00;;
15915;SDS011;8057;47.830;-3.870;2023-04-24T20:31:02;7.07;;;3.00;;
15915;SDS011;8057;47.830;-3.870;2023-04-24T20:35:12;6.67;;;2.87;;
15915;SDS011;8057;47.830;-3.870;2023-04-24T20:39:23;7.30;;;3.00;;
15915;SDS011;8057;47.830;-3.870;2023-04-24T20:43:32;9.27;;;3.47;;
15915;SDS011;8057;47.830;-3.870;2023-04-24T20:47:41;6.93;;;3.33;;
15915;SDS011;8057;47.830;-3.870;2023-04-24T20:51:51;6.00;;;2.93;;
15915;SDS011;8057;47.830;-3.870;2023-04-24T20:56:01;4.30;;;3.27;;
15915;SDS011;8057;47.830;-3.870;2023-04-24T21:00:11;8.63;;;3.27;;
15915;SDS011;8057;47.830;-3.870;2023-04-24T21:04:21;11.47;;;3.67;;
15915;SDS011;8057;47.830;-3.870;2023-04-24T21:08:30;12.00;;;4.00;;
15915;SDS011;8057;47.830;-3.870;2023-04-24T21:12:41;8.13;;;3.37;;
15915;SDS011;8057;47.830;-3.870;2023-04-24T21:16:50;7.23;;;3.40;;
15915;SDS011;8057;47.830;-3.870;2023-04-24T21:20:59;9.30;;;3.17;;
15915;SDS011;8057;47.830;-3.870;2023-04-24T21:25:09;9.07;;;4.37;;
15915;SDS011;8057;47.830;-3.870;2023-04-24T21:29:20;6.57;;;3.20;;
15915;SDS011;8057;47.830;-3.870;2023-04-24T21:33:29;10.03;;;3.40;;
15915;SDS011;8057;47.830;-3.870;2023-04-24T21:37:38;8.27;;;3.80;;
15915;SDS011;8057;47.830;-3.870;2023-04-24T21:41:47;12.30;;;4.33;;
15915;SDS011;8057;47.830;-3.870;2023-04-24T21:45:58;11.30;;;4.30;;
15915;SDS011;8057;47.830;-3.870;2023-04-24T21:50:08;11.07;;;3.70;;
15915;SDS011;8057;47.830;-3.870;2023-04-24T21:54:17;8.20;;;3.60;;
15915;SDS011;8057;47.830;-3.870;2023-04-24T21:58:27;7.97;;;3.50;;
15915;SDS011;8057;47.830;-3.870;2023-04-24T22:02:38;6.90;;;3.20;;
15915;SDS011;8057;47.830;-3.870;2023-04-24T22:06:49;6.67;;;3.10;;
15915;SDS011;8057;47.830;-3.870;2023-04-24T22:10:59;8.27;;;3.10;;
15915;SDS011;8057;47.830;-3.870;2023-04-24T22:15:09;5.10;;;3.43;;
15915;SDS011;8057;47.830;-3.870;2023-04-24T22:19:20;8.03;;;4.00;;
15915;SDS011;8057;47.830;-3.870;2023-04-24T22:23:31;8.33;;;3.60;;
15915;SDS011;8057;47.830;-3.870;2023-04-24T22:27:40;8.43;;;3.30;;
15915;SDS011;8057;47.830;-3.870;2023-04-24T22:31:49;5.80;;;3.07;;
15915;SDS011;8057;47.830;-3.870;2023-04-24T22:36:04;10.00;;;3.23;;
15915;SDS011;8057;47.830;-3.870;2023-04-24T22:40:13;13.07;;;3.97;;
15915;SDS011;8057;47.830;-3.870;2023-04-24T22:44:22;6.57;;;3.57;;
15915;SDS011;8057;47.830;-3.870;2023-04-24T22:48:32;7.27;;;3.40;;
15915;SDS011;8057;47.830;-3.870;2023-04-24T22:52:42;8.90;;;3.80;;
15915;SDS011;8057;47.830;-3.870;2023-04-24T22:56:51;9.70;;;3.80;;
15915;SDS011;8057;47.830;-3.870;2023-04-24T23:01:00;7.33;;;3.83;;
15915;SDS011;8057;47.830;-3.870;2023-04-24T23:05:10;6.60;;;3.77;;
15915;SDS011;8057;47.830;-3.870;2023-04-24T23:09:20;14.00;;;4.50;;
15915;SDS011;8057;47.830;-3.870;2023-04-24T23:13:29;7.83;;;3.80;;
15915;SDS011;8057;47.830;-3.870;2023-04-24T23:17:38;9.93;;;4.70;;
15915;SDS011;8057;47.830;-3.870;2023-04-24T23:21:48;9.07;;;4.30;;
15915;SDS011;8057;47.830;-3.870;2023-04-24T23:25:59;10.67;;;4.63;;
15915;SDS011;8057;47.830;-3.870;2023-04-24T23:30:08;8.30;;;4.17;;
15915;SDS011;8057;47.830;-3.870;2023-04-24T23:34:17;14.70;;;4.77;;
15915;SDS011;8057;47.830;-3.870;2023-04-24T23:38:27;9.80;;;4.90;;
15915;SDS011;8057;47.830;-3.870;2023-04-24T23:42:50;11.40;;;5.43;;
15915;SDS011;8057;47.830;-3.870;2023-04-24T23:47:12;8.93;;;4.60;;
15915;SDS011;8057;47.830;-3.870;2023-04-24T23:51:21;8.77;;;4.30;;
15915;SDS011;8057;47.830;-3.870;2023-04-24T23:55:30;9.13;;;4.77;;
15915;SDS011;8057;47.830;-3.870;2023-04-24T23:59:41;7.57;;;4.33;;
